Time;durP1;ratioP1;P1;durP2;ratioP2;P2;SDS_P1;SDS_P2;PMS_P1;PMS_P2;Temp;Humidity;BMP_temperature;BMP_pressure;BME280_temperature;BME280_humidity;BME280_pressure;Samples;Min_cycle;Max_cycle;Signal;HPM_P1;HPM_P2
2023/01/11 00:00:38;;;;;;;1.80;1.37;;;8.70;99.90;;;;;;4981702;28;20836;-93
2023/01/11 00:03:05;;;;;;;3.00;1.80;;;8.70;99.90;;;;;;4997633;28;20436;-92
2023/01/11 00:05:35;;;;;;;4.57;1.67;;;8.70;99.90;;;;;;4961943;28;20476;-92
2023/01/11 00:08:03;;;;;;;1.80;1.37;;;8.80;99.90;;;;;;4953755;28;20436;-92
2023/01/11 00:10:29;;;;;;;4.60;1.20;;;8.80;99.90;;;;;;4965350;28;20532;-92
2023/01/11 00:12:55;;;;;;;2.90;1.50;;;8.80;99.90;;;;;;4965054;28;20547;-92
2023/01/11 00:15:21;;;;;;;2.20;1.50;;;8.80;99.90;;;;;;4981276;28;20420;-93
2023/01/11 00:17:47;;;;;;;1.97;1.10;;;8.80;99.90;;;;;;4981186;28;20452;-93
2023/01/11 00:20:13;;;;;;;1.53;1.23;;;8.80;99.90;;;;;;4965316;28;20440;-93
2023/01/11 00:22:38;;;;;;;3.40;1.67;;;8.80;99.90;;;;;;4965006;28;20469;-93
2023/01/11 00:25:05;;;;;;;2.50;1.37;;;8.80;99.90;;;;;;4961476;28;20477;-92
2023/01/11 00:27:31;;;;;;;3.10;1.40;;;8.80;99.90;;;;;;4958800;28;20769;-92
2023/01/11 00:29:56;;;;;;;1.80;1.00;;;8.80;99.90;;;;;;4964887;28;20439;-93
2023/01/11 00:32:26;;;;;;;1.90;1.20;;;8.80;99.90;;;;;;4978518;28;20435;-91
2023/01/11 00:34:52;;;;;;;3.93;1.30;;;8.80;99.90;;;;;;4945518;28;20462;-92
2023/01/11 00:37:19;;;;;;;1.83;1.30;;;8.80;99.90;;;;;;4961595;28;20455;-94
2023/01/11 00:39:44;;;;;;;4.17;1.40;;;8.80;99.90;;;;;;4945624;28;20471;-91
2023/01/11 00:47:55;;;;;;;2.33;1.30;;;8.80;99.90;;;;;;4977144;28;20752;-93
2023/01/11 00:50:30;;;;;;;2.50;1.77;;;8.80;99.90;;;;;;4961667;28;20438;-91
2023/01/11 00:52:59;;;;;;;2.43;1.50;;;8.80;99.90;;;;;;4969494;28;20451;-92
2023/01/11 00:55:25;;;;;;;2.43;1.20;;;8.80;99.90;;;;;;4964504;28;20448;-92
2023/01/11 00:57:55;;;;;;;2.67;1.50;;;8.80;99.90;;;;;;4976886;28;20453;-92
2023/01/11 01:00:21;;;;;;;2.63;1.30;;;8.80;99.90;;;;;;4980207;28;20439;-92
2023/01/11 01:02:48;;;;;;;2.20;1.30;;;8.80;99.90;;;;;;4964295;28;20432;-91
2023/01/11 01:05:14;;;;;;;3.33;1.63;;;8.80;99.90;;;;;;4960438;28;20808;-90
2023/01/11 01:07:45;;;;;;;1.83;1.37;;;8.80;99.90;;;;;;5006238;28;20529;-91
2023/01/11 01:10:14;;;;;;;1.73;1.37;;;8.80;99.90;;;;;;5010145;28;20421;-91
2023/01/11 01:15:32;;;;;;;2.27;1.37;;;8.80;99.90;;;;;;4980124;28;20765;-91
2023/01/11 01:18:00;;;;;;;1.80;1.13;;;8.80;99.90;;;;;;4980371;28;20436;-91
2023/01/11 01:20:26;;;;;;;2.10;1.50;;;8.80;99.90;;;;;;4963712;28;20509;-91
2023/01/11 01:22:52;;;;;;;1.80;1.27;;;8.80;99.90;;;;;;4963846;28;20476;-91
2023/01/11 01:25:20;;;;;;;3.50;1.70;;;8.80;99.90;;;;;;4972116;28;20548;-92
2023/01/11 01:27:51;;;;;;;2.37;1.40;;;8.80;99.90;;;;;;4986668;28;20435;-91
2023/01/11 01:30:19;;;;;;;1.90;1.20;;;8.90;99.90;;;;;;4964244;28;20506;-91
2023/01/11 01:32:47;;;;;;;1.77;1.30;;;8.80;99.90;;;;;;4963631;28;20462;-90
2023/01/11 01:35:13;;;;;;;3.10;1.50;;;8.80;99.90;;;;;;4979808;28;20415;-91
2023/01/11 01:37:43;;;;;;;2.30;1.37;;;8.80;99.90;;;;;;4996011;28;20442;-91
2023/01/11 01:40:15;;;;;;;1.90;1.30;;;8.80;99.90;;;;;;4980413;28;20410;-91
2023/01/11 01:42:40;;;;;;;2.53;1.43;;;8.90;99.90;;;;;;4963883;28;20910;-91
2023/01/11 01:45:23;;;;;;;1.97;1.10;;;8.90;99.90;;;;;;4979353;28;20526;-93
2023/01/11 01:48:04;;;;;;;2.03;1.20;;;8.90;99.90;;;;;;4963949;28;20426;-91
2023/01/11 01:50:49;;;;;;;1.63;1.00;;;8.90;99.90;;;;;;4964425;28;20455;-92
2023/01/11 01:53:43;;;;;;;1.80;1.03;;;8.90;99.90;;;;;;4984752;28;20435;-91
2023/01/11 01:56:16;;;;;;;1.30;1.00;;;8.90;99.90;;;;;;4982905;28;20517;-92
2023/01/11 01:58:57;;;;;;;1.17;0.73;;;8.90;99.90;;;;;;4979136;28;20436;-91
2023/01/11 02:04:19;;;;;;;0.90;0.80;;;8.90;99.90;;;;;;4959275;28;20853;-90
2023/01/11 02:06:45;;;;;;;1.13;0.80;;;8.90;99.90;;;;;;4959201;28;20522;-90
2023/01/11 02:09:34;;;;;;;1.00;0.90;;;8.90;99.90;;;;;;4975394;28;20425;-90
2023/01/11 02:12:06;;;;;;;2.47;1.00;;;8.90;99.90;;;;;;4943865;28;20468;-90
2023/01/11 02:14:35;;;;;;;1.60;0.97;;;8.90;99.90;;;;;;4960570;28;20451;-92
2023/01/11 02:17:01;;;;;;;2.13;1.10;;;8.90;99.90;;;;;;4947073;28;20436;-91
2023/01/11 02:20:03;;;;;;;2.83;1.00;;;8.90;99.90;;;;;;4946946;28;20520;-91
2023/01/11 02:22:47;;;;;;;1.40;0.90;;;8.90;99.90;;;;;;4950100;28;20440;-90
2023/01/11 02:25:26;;;;;;;2.50;1.07;;;8.90;99.90;;;;;;5000280;28;20479;-91
2023/01/11 02:28:16;;;;;;;2.03;0.70;;;8.90;99.90;;;;;;4983307;28;20512;-91
2023/01/11 02:31:29;;;;;;;1.53;1.03;;;8.90;99.90;;;;;;4983286;28;20499;-91
2023/01/11 02:34:12;;;;;;;1.37;0.83;;;8.90;99.90;;;;;;4995221;28;20428;-91
2023/01/11 02:37:00;;;;;;;1.83;0.90;;;8.90;99.90;;;;;;4963695;28;20463;-92
2023/01/11 02:39:38;;;;;;;4.63;0.80;;;8.90;99.90;;;;;;4963109;28;20444;-91
2023/01/11 02:45:38;;;;;;;1.30;1.10;;;8.90;99.90;;;;;;4981890;28;20562;-91
2023/01/11 02:48:46;;;;;;;1.40;0.90;;;8.90;99.90;;;;;;4966163;28;20446;-90
2023/01/11 02:51:25;;;;;;;1.90;1.00;;;8.90;99.90;;;;;;4972683;28;20442;-91
2023/01/11 02:53:55;;;;;;;1.30;1.00;;;8.90;99.90;;;;;;4965749;28;20460;-91
2023/01/11 02:56:26;;;;;;;1.70;1.10;;;8.90;99.90;;;;;;4965569;28;20518;-91
2023/01/11 02:58:56;;;;;;;1.23;0.70;;;8.90;99.90;;;;;;4981658;28;20447;-91
2023/01/11 03:01:25;;;;;;;1.63;1.00;;;8.90;99.90;;;;;;4981597;28;20264;-90
2023/01/11 03:03:52;;;;;;;1.43;1.10;;;8.90;99.90;;;;;;4997551;28;20566;-91
2023/01/11 03:06:34;;;;;;;1.60;1.10;;;8.90;99.90;;;;;;4965315;28;20881;-91
2023/01/11 03:09:12;;;;;;;1.20;1.00;;;8.90;99.90;;;;;;4965400;28;20423;-91
2023/01/11 03:15:07;;;;;;;1.40;0.90;;;9.00;99.90;;;;;;4982316;28;20551;-90
2023/01/11 03:17:56;;;;;;;1.60;1.00;;;9.00;99.90;;;;;;4966014;28;20456;-90
2023/01/11 03:20:25;;;;;;;1.97;1.13;;;9.00;99.90;;;;;;4966286;28;20844;-91
2023/01/11 03:23:00;;;;;;;1.43;0.80;;;9.00;99.90;;;;;;4966372;28;20498;-91
2023/01/11 03:25:31;;;;;;;2.30;1.00;;;9.00;99.90;;;;;;5004021;28;20553;-90
2023/01/11 03:28:08;;;;;;;1.53;0.90;;;9.00;99.90;;;;;;4962664;28;20452;-91
2023/01/11 03:30:39;;;;;;;1.63;1.00;;;9.00;99.90;;;;;;4946956;28;20436;-90
2023/01/11 03:33:10;;;;;;;1.57;0.90;;;9.00;99.90;;;;;;4955973;28;20502;-90
2023/01/11 03:35:52;;;;;;;2.60;1.13;;;9.00;99.90;;;;;;4948331;28;20501;-90
2023/01/11 03:38:46;;;;;;;2.23;0.80;;;9.00;99.90;;;;;;4946468;28;20436;-90
2023/01/11 03:41:20;;;;;;;1.10;0.90;;;9.00;99.90;;;;;;4962214;28;20475;-90
2023/01/11 03:43:51;;;;;;;1.60;1.17;;;9.00;99.90;;;;;;4947143;28;20476;-90
2023/01/11 03:50:30;;;;;;;1.10;1.00;;;9.00;99.90;;;;;;4978167;28;20424;-90
2023/01/11 03:52:59;;;;;;;2.70;1.33;;;9.00;99.90;;;;;;4946243;28;20469;-90
2023/01/11 03:55:33;;;;;;;1.70;1.37;;;9.00;99.90;;;;;;4946300;28;20433;-89
2023/01/11 03:58:01;;;;;;;1.73;0.80;;;9.00;99.90;;;;;;4975398;28;20452;-90
2023/01/11 04:00:29;;;;;;;2.17;1.20;;;9.00;99.90;;;;;;4965285;28;20463;-90
2023/01/11 04:02:59;;;;;;;1.80;1.07;;;9.00;99.90;;;;;;4981735;28;20403;-90
2023/01/11 04:05:29;;;;;;;1.07;0.90;;;9.00;99.90;;;;;;4997134;28;20479;-90
2023/01/11 04:07:58;;;;;;;1.53;1.13;;;9.00;99.90;;;;;;4965521;28;20788;-90
2023/01/11 04:10:26;;;;;;;2.03;1.33;;;9.00;99.90;;;;;;4997411;28;20420;-90
2023/01/11 04:12:52;;;;;;;1.50;1.10;;;9.00;99.90;;;;;;4981085;28;20447;-90
2023/01/11 04:15:18;;;;;;;2.23;1.20;;;9.00;99.90;;;;;;4965145;28;20455;-90
2023/01/11 04:17:46;;;;;;;2.03;1.27;;;9.00;99.90;;;;;;4965658;28;20424;-91
2023/01/11 04:20:14;;;;;;;2.20;1.30;;;9.00;99.90;;;;;;4965366;28;20530;-90
2023/01/11 04:22:40;;;;;;;2.60;1.40;;;9.00;99.90;;;;;;4964956;28;20432;-90
2023/01/11 04:25:07;;;;;;;1.23;0.90;;;9.00;99.90;;;;;;4980570;28;20472;-90
2023/01/11 04:27:33;;;;;;;2.13;1.30;;;9.00;99.90;;;;;;4977521;28;20464;-91
2023/01/11 04:30:01;;;;;;;1.30;1.00;;;9.00;99.90;;;;;;4977633;28;20433;-90
2023/01/11 04:32:27;;;;;;;1.57;1.27;;;9.10;99.90;;;;;;4961463;28;20467;-90
2023/01/11 04:34:58;;;;;;;3.60;1.43;;;9.10;99.90;;;;;;4946539;28;20439;-90
2023/01/11 04:37:24;;;;;;;2.20;1.10;;;9.10;99.90;;;;;;4960637;28;20429;-91
2023/01/11 04:39:54;;;;;;;1.50;1.10;;;9.10;99.90;;;;;;4977296;28;20464;-90
2023/01/11 04:42:21;;;;;;;1.47;1.30;;;9.10;99.90;;;;;;4977247;28;20421;-90
2023/01/11 04:44:52;;;;;;;1.50;1.30;;;9.10;99.90;;;;;;4960945;28;20488;-90
2023/01/11 04:47:20;;;;;;;2.27;1.30;;;9.10;99.90;;;;;;4964235;28;20450;-91
2023/01/11 04:49:49;;;;;;;1.53;1.13;;;9.10;99.90;;;;;;4964245;28;20506;-90
2023/01/11 04:52:17;;;;;;;3.20;1.60;;;9.10;99.90;;;;;;4980465;28;20423;-90
2023/01/11 04:54:43;;;;;;;2.27;1.27;;;9.10;99.90;;;;;;4980098;28;20531;-90
2023/01/11 04:57:15;;;;;;;1.67;1.20;;;9.10;99.90;;;;;;4964380;28;20486;-90
2023/01/11 04:59:41;;;;;;;1.40;1.10;;;9.10;99.90;;;;;;4960903;28;20500;-91
2023/01/11 05:02:08;;;;;;;1.50;1.20;;;9.10;99.90;;;;;;4961040;28;20507;-90
2023/01/11 05:04:34;;;;;;;1.97;1.40;;;9.10;99.90;;;;;;4977551;28;20846;-90
2023/01/11 05:07:02;;;;;;;2.33;1.50;;;9.10;99.90;;;;;;4964166;28;20435;-90
2023/01/11 05:09:31;;;;;;;1.90;1.57;;;9.10;99.90;;;;;;4980621;28;20421;-91
2023/01/11 05:12:01;;;;;;;1.97;1.50;;;9.10;99.90;;;;;;4980075;28;20545;-90
2023/01/11 05:14:29;;;;;;;1.37;1.20;;;9.10;99.90;;;;;;4963973;28;20475;-89
2023/01/11 05:16:57;;;;;;;2.40;1.30;;;9.10;99.90;;;;;;4979609;28;20451;-90
2023/01/11 05:19:50;;;;;;;2.20;1.57;;;9.10;99.90;;;;;;4960520;28;20473;-91
2023/01/11 05:22:21;;;;;;;4.20;2.10;;;9.20;99.90;;;;;;4959980;28;20503;-90
2023/01/11 05:24:49;;;;;;;3.63;1.70;;;9.10;99.90;;;;;;4949499;28;20551;-90
2023/01/11 05:27:23;;;;;;;3.83;1.87;;;9.20;99.90;;;;;;4964654;28;20440;-91
2023/01/11 05:29:49;;;;;;;2.10;1.57;;;9.10;99.90;;;;;;4963717;28;20972;-90
2023/01/11 05:32:15;;;;;;;2.10;1.53;;;9.20;99.90;;;;;;4979857;28;20464;-90
2023/01/11 05:34:41;;;;;;;2.80;1.57;;;9.20;99.90;;;;;;4979650;28;20425;-90
2023/01/11 05:37:07;;;;;;;2.50;1.93;;;9.20;99.90;;;;;;4979648;28;20213;-90
2023/01/11 05:39:32;;;;;;;2.87;2.17;;;9.20;99.90;;;;;;4980032;28;20426;-90
2023/01/11 05:42:01;;;;;;;2.73;1.80;;;9.20;99.90;;;;;;4960204;28;20440;-91
2023/01/11 05:47:14;;;;;;;4.93;1.83;;;9.20;99.90;;;;;;4960324;28;20426;-90
2023/01/11 05:49:45;;;;;;;3.53;1.70;;;9.20;99.90;;;;;;4960273;28;20449;-90
2023/01/11 05:52:13;;;;;;;3.23;1.53;;;9.20;99.90;;;;;;4976315;28;20426;-90
2023/01/11 05:54:39;;;;;;;1.73;1.23;;;9.20;99.90;;;;;;4974974;28;20452;-90
2023/01/11 05:57:11;;;;;;;3.00;1.80;;;9.20;99.90;;;;;;4979968;28;20451;-90
2023/01/11 05:59:37;;;;;;;2.43;1.67;;;9.20;99.90;;;;;;4962975;28;20429;-90
2023/01/11 06:02:07;;;;;;;3.03;1.60;;;9.20;99.90;;;;;;4995733;28;20421;-90
2023/01/11 06:04:33;;;;;;;2.90;1.70;;;9.20;99.90;;;;;;4979323;28;20472;-91
2023/01/11 06:06:59;;;;;;;2.07;1.40;;;9.20;99.90;;;;;;4979288;28;20428;-90
2023/01/11 06:09:27;;;;;;;2.90;1.70;;;9.20;99.90;;;;;;4979373;28;20480;-90
2023/01/11 06:11:55;;;;;;;3.90;1.67;;;9.20;99.90;;;;;;4963428;28;20451;-91
2023/01/11 06:14:21;;;;;;;2.87;1.10;;;9.20;99.90;;;;;;4963178;28;20456;-91
2023/01/11 06:16:49;;;;;;;1.57;1.47;;;9.20;99.90;;;;;;4978642;28;20578;-91
2023/01/11 06:19:15;;;;;;;2.60;1.50;;;9.20;99.90;;;;;;4962629;28;20503;-91
2023/01/11 06:21:41;;;;;;;2.17;1.50;;;9.20;99.90;;;;;;4946304;28;20439;-91
2023/01/11 06:24:09;;;;;;;1.80;1.27;;;9.20;99.90;;;;;;4962167;28;20486;-90
2023/01/11 06:26:38;;;;;;;3.73;1.57;;;9.20;99.90;;;;;;4962175;28;20432;-90
2023/01/11 06:29:06;;;;;;;2.43;1.40;;;9.20;99.90;;;;;;4962374;28;20796;-90
2023/01/11 06:31:36;;;;;;;3.40;1.50;;;9.20;99.90;;;;;;4962290;28;20417;-91
2023/01/11 06:34:02;;;;;;;2.40;1.50;;;9.20;99.90;;;;;;4978238;28;20511;-89
2023/01/11 06:36:28;;;;;;;2.40;1.20;;;9.20;99.90;;;;;;4958884;28;20509;-91
2023/01/11 06:38:54;;;;;;;2.30;1.30;;;9.20;99.90;;;;;;4959082;28;20484;-91
2023/01/11 06:41:22;;;;;;;2.00;1.23;;;9.30;99.90;;;;;;4943008;28;20512;-91
2023/01/11 06:43:50;;;;;;;3.87;1.50;;;9.30;99.90;;;;;;4974930;28;20429;-91
2023/01/11 06:46:18;;;;;;;1.83;1.20;;;9.30;99.90;;;;;;4973286;28;20793;-91
2023/01/11 06:48:47;;;;;;;4.50;1.30;;;9.30;99.90;;;;;;4962139;28;20437;-91
2023/01/11 06:51:18;;;;;;;1.93;1.30;;;9.30;99.90;;;;;;4945926;28;20536;-91
2023/01/11 06:53:45;;;;;;;2.13;1.43;;;9.30;99.90;;;;;;4949297;28;20466;-91
2023/01/11 06:56:17;;;;;;;1.40;1.30;;;9.30;99.90;;;;;;4963619;28;20424;-91
2023/01/11 06:58:43;;;;;;;2.00;1.07;;;9.30;99.90;;;;;;4979280;28;20884;-91
2023/01/11 07:01:11;;;;;;;1.10;0.97;;;9.40;99.90;;;;;;4981429;28;20427;-91
2023/01/11 07:03:40;;;;;;;1.30;1.20;;;9.40;99.90;;;;;;4966210;28;20523;-91
2023/01/11 07:06:08;;;;;;;2.83;1.40;;;9.40;99.90;;;;;;4968328;28;20475;-90
2023/01/11 07:08:34;;;;;;;1.90;1.20;;;9.40;99.90;;;;;;5001898;28;20420;-91
2023/01/11 07:11:01;;;;;;;3.80;0.90;;;9.40;99.90;;;;;;5001906;28;20491;-91
2023/01/11 07:13:29;;;;;;;2.07;1.10;;;9.40;99.90;;;;;;4985698;28;20428;-90
2023/01/11 07:15:56;;;;;;;1.10;1.00;;;9.40;99.90;;;;;;4983575;28;20442;-91
2023/01/11 07:18:24;;;;;;;1.30;0.87;;;9.40;99.90;;;;;;4982077;28;20464;-91
2023/01/11 07:20:53;;;;;;;2.70;1.20;;;9.50;99.90;;;;;;4982270;28;20461;-91
2023/01/11 07:23:19;;;;;;;1.23;0.90;;;9.50;99.90;;;;;;4998368;28;20448;-91
2023/01/11 07:25:58;;;;;;;1.97;1.00;;;9.50;99.90;;;;;;4963809;28;20568;-91
2023/01/11 07:28:29;;;;;;;0.97;0.77;;;9.50;99.90;;;;;;4947049;28;20459;-91
2023/01/11 07:30:55;;;;;;;1.90;0.83;;;9.50;99.90;;;;;;4962798;28;20440;-91
2023/01/11 07:33:21;;;;;;;1.20;0.93;;;9.50;99.90;;;;;;4962691;28;20431;-91
2023/01/11 07:35:49;;;;;;;1.33;1.00;;;9.50;99.90;;;;;;4946911;28;20440;-91
2023/01/11 07:38:15;;;;;;;2.00;0.90;;;9.60;99.90;;;;;;4978550;28;20456;-91
2023/01/11 07:40:41;;;;;;;1.57;0.80;;;9.60;99.90;;;;;;4946523;28;20533;-91
2023/01/11 07:43:13;;;;;;;2.50;0.90;;;9.60;99.90;;;;;;4963045;28;20436;-88
2023/01/11 07:45:52;;;;;;;1.03;0.70;;;9.60;99.90;;;;;;4976394;28;21070;-88
2023/01/11 07:48:25;;;;;;;2.17;0.90;;;9.60;99.90;;;;;;4978237;28;20429;-89
2023/01/11 07:50:51;;;;;;;0.90;0.73;;;9.60;99.90;;;;;;5009486;28;20420;-91
2023/01/11 07:53:20;;;;;;;1.10;0.70;;;9.60;99.90;;;;;;5017053;28;20421;-89
2023/01/11 07:55:46;;;;;;;1.93;0.80;;;9.60;99.90;;;;;;5016383;28;20471;-90
2023/01/11 07:58:15;;;;;;;0.90;0.80;;;9.60;99.90;;;;;;4985147;28;20454;-90
2023/01/11 08:00:41;;;;;;;1.00;0.90;;;9.60;99.90;;;;;;4984837;28;20436;-93
2023/01/11 08:03:08;;;;;;;0.93;0.60;;;9.60;99.90;;;;;;5017326;28;20773;-92
2023/01/11 08:05:36;;;;;;;1.50;0.80;;;9.60;99.90;;;;;;5014461;28;20495;-91
2023/01/11 08:08:02;;;;;;;1.03;0.87;;;9.60;99.90;;;;;;4997375;28;20425;-92
2023/01/11 08:10:28;;;;;;;2.00;0.90;;;9.60;99.90;;;;;;4978037;28;20434;-91
2023/01/11 08:15:42;;;;;;;1.13;0.90;;;9.60;99.90;;;;;;4962525;28;20434;-91
2023/01/11 08:18:10;;;;;;;1.20;0.90;;;9.60;99.90;;;;;;4945922;28;20532;-90
2023/01/11 08:20:36;;;;;;;3.00;1.23;;;9.60;99.90;;;;;;4958321;28;20448;-90
2023/01/11 08:23:09;;;;;;;0.80;0.60;;;9.60;99.90;;;;;;4997525;28;20527;-92
2023/01/11 08:25:34;;;;;;;1.30;0.90;;;9.60;99.90;;;;;;4981034;28;20614;-92
2023/01/11 08:28:08;;;;;;;1.10;0.80;;;9.60;99.90;;;;;;4965076;28;20468;-93
2023/01/11 08:30:35;;;;;;;1.17;0.80;;;9.60;99.90;;;;;;4997152;28;20431;-92
2023/01/11 08:33:04;;;;;;;1.57;0.80;;;9.60;99.90;;;;;;4980789;28;20910;-93
2023/01/11 08:35:36;;;;;;;2.10;1.10;;;9.60;99.90;;;;;;4981034;28;20437;-92
2023/01/11 08:38:02;;;;;;;1.47;0.80;;;9.70;99.90;;;;;;4980867;28;20961;-91
2023/01/11 08:40:32;;;;;;;1.93;1.10;;;9.70;99.90;;;;;;4981429;28;20416;-91
2023/01/11 08:42:58;;;;;;;1.77;0.90;;;9.70;99.90;;;;;;4981028;28;20755;-92
2023/01/11 08:45:27;;;;;;;0.93;0.83;;;9.70;99.90;;;;;;4980791;28;20487;-90
2023/01/11 08:47:56;;;;;;;1.10;0.97;;;9.70;99.90;;;;;;4996943;28;20445;-90
2023/01/11 08:50:21;;;;;;;1.40;1.10;;;9.70;99.90;;;;;;4997303;28;20442;-89
2023/01/11 08:52:49;;;;;;;1.40;1.20;;;9.70;99.90;;;;;;4964387;28;20563;-89
2023/01/11 08:55:15;;;;;;;2.53;1.47;;;9.70;99.90;;;;;;4996654;28;20978;-89
2023/01/11 08:57:44;;;;;;;2.70;1.33;;;9.80;99.90;;;;;;4964642;28;20465;-90
2023/01/11 09:00:14;;;;;;;1.67;1.30;;;9.70;99.90;;;;;;4980448;28;20539;-89
2023/01/11 09:02:44;;;;;;;2.10;1.73;;;9.80;99.90;;;;;;4980252;28;20519;-89
2023/01/11 09:05:10;;;;;;;1.80;1.47;;;9.80;99.90;;;;;;4979600;28;20464;-90
2023/01/11 09:07:38;;;;;;;3.20;1.80;;;9.80;99.90;;;;;;4961416;28;20430;-90
2023/01/11 09:10:12;;;;;;;3.07;1.63;;;9.80;99.90;;;;;;4954751;28;20747;-89
2023/01/11 09:12:46;;;;;;;2.73;1.70;;;9.80;99.90;;;;;;4996310;28;20812;-90
2023/01/11 09:15:12;;;;;;;2.97;2.00;;;9.80;99.90;;;;;;5014412;28;20404;-89
2023/01/11 09:18:01;;;;;;;5.50;2.07;;;9.80;99.90;;;;;;5004056;28;20774;-91
2023/01/11 09:20:27;;;;;;;2.60;1.80;;;9.80;99.90;;;;;;4962055;28;20798;-92
2023/01/11 09:22:53;;;;;;;5.43;2.60;;;9.80;99.90;;;;;;4960150;28;20438;-93
2023/01/11 09:25:22;;;;;;;4.63;2.03;;;9.80;99.90;;;;;;4949714;28;20474;-92
2023/01/11 09:27:50;;;;;;;6.83;2.10;;;9.80;99.90;;;;;;4977673;28;20549;-94
2023/01/11 09:30:18;;;;;;;4.70;2.40;;;9.80;99.90;;;;;;4983987;28;20488;-95
2023/01/11 09:32:45;;;;;;;3.83;1.90;;;9.80;99.90;;;;;;5018935;28;20734;-93
2023/01/11 09:35:13;;;;;;;5.30;2.77;;;9.80;99.90;;;;;;4999452;28;20452;-94
2023/01/11 09:37:43;;;;;;;4.13;2.33;;;9.80;99.90;;;;;;4983267;28;20519;-93
2023/01/11 09:40:19;;;;;;;9.93;2.60;;;9.80;99.90;;;;;;4999474;28;20417;-91
2023/01/11 09:42:51;;;;;;;3.10;2.37;;;9.80;99.90;;;;;;5015734;28;20400;-92
2023/01/11 09:45:21;;;;;;;4.80;2.60;;;9.80;99.90;;;;;;4981864;28;20575;-93
2023/01/11 09:47:51;;;;;;;9.03;2.63;;;9.90;99.90;;;;;;4944832;28;20437;-91
2023/01/11 09:50:44;;;;;;;6.60;2.67;;;9.80;99.90;;;;;;4959375;28;20437;-93
2023/01/11 09:53:30;;;;;;;3.70;2.27;;;9.80;99.90;;;;;;4959468;28;20466;-94
2023/01/11 09:56:00;;;;;;;6.80;3.07;;;9.80;99.90;;;;;;4959263;28;20421;-93
2023/01/11 09:59:04;;;;;;;8.00;2.90;;;9.90;99.90;;;;;;4959273;28;20529;-93
2023/01/11 10:01:39;;;;;;;8.83;2.53;;;9.90;99.90;;;;;;4943405;28;20461;-93
2023/01/11 10:04:42;;;;;;;8.27;3.20;;;9.90;99.90;;;;;;4975547;28;20902;-91
2023/01/11 10:07:53;;;;;;;11.13;2.80;;;9.90;99.90;;;;;;4945014;29;20435;-91
2023/01/11 10:10:29;;;;;;;8.47;2.77;;;9.90;99.90;;;;;;4940030;29;20451;-94
2023/01/11 10:13:17;;;;;;;7.87;2.90;;;9.90;99.90;;;;;;4955246;29;20452;-92
2023/01/11 10:15:53;;;;;;;8.80;3.03;;;9.80;99.90;;;;;;4940471;29;20477;-96
2023/01/11 10:18:38;;;;;;;7.33;2.80;;;9.80;99.90;;;;;;4940330;29;20425;-92
2023/01/11 10:21:27;;;;;;;11.80;3.27;;;9.80;99.90;;;;;;4974484;28;20422;-91
2023/01/11 10:24:01;;;;;;;7.40;2.93;;;9.90;99.90;;;;;;4976101;28;20423;-91
2023/01/11 10:26:35;;;;;;;6.03;2.63;;;9.90;99.90;;;;;;4984179;28;20458;-92
2023/01/11 10:29:39;;;;;;;10.67;2.77;;;9.90;99.90;;;;;;4976316;28;20501;-91
2023/01/11 10:36:22;;;;;;;6.73;2.53;;;9.90;99.90;;;;;;4974727;28;20516;-91
2023/01/11 10:39:20;;;;;;;9.50;2.73;;;9.90;99.90;;;;;;4967178;28;20425;-90
2023/01/11 10:42:02;;;;;;;11.40;3.67;;;9.90;99.90;;;;;;4983218;28;20421;-92
2023/01/11 10:44:42;;;;;;;8.70;3.27;;;9.90;99.90;;;;;;4967297;28;20464;-92
2023/01/11 10:47:16;;;;;;;7.83;2.57;;;9.90;99.90;;;;;;4983214;28;20788;-93
2023/01/11 10:49:57;;;;;;;10.60;3.50;;;9.90;99.90;;;;;;4963679;28;20437;-92
2023/01/11 10:52:37;;;;;;;7.67;3.63;;;9.90;99.90;;;;;;4947926;28;20426;-93
2023/01/11 10:55:12;;;;;;;7.30;2.93;;;9.90;99.90;;;;;;4963342;28;20938;-93
2023/01/11 10:57:56;;;;;;;8.03;2.40;;;9.90;99.90;;;;;;4947347;28;20437;-93
2023/01/11 11:00:50;;;;;;;10.83;3.67;;;9.90;99.90;;;;;;4965466;28;20493;-91
2023/01/11 11:03:35;;;;;;;7.00;2.93;;;9.90;99.90;;;;;;4972384;28;20452;-91
2023/01/11 11:06:22;;;;;;;7.30;2.87;;;9.90;99.90;;;;;;4989089;28;20612;-94
2023/01/11 11:09:20;;;;;;;8.53;2.90;;;9.90;99.90;;;;;;4999170;28;20434;-92
2023/01/11 11:11:59;;;;;;;7.30;2.93;;;9.90;99.90;;;;;;5002351;28;20940;-93
2023/01/11 11:14:48;;;;;;;9.00;2.97;;;10.00;99.90;;;;;;5002146;28;20436;-93
2023/01/11 11:17:22;;;;;;;8.13;3.00;;;10.00;99.90;;;;;;5018151;28;20496;-91
2023/01/11 11:19:48;;;;;;;7.33;2.97;;;10.00;99.90;;;;;;5006583;28;20523;-92
2023/01/11 11:22:14;;;;;;;5.20;3.17;;;10.00;99.90;;;;;;4987431;28;20460;-92
2023/01/11 11:24:40;;;;;;;7.60;2.90;;;10.00;99.90;;;;;;5001538;28;20796;-92
2023/01/11 11:27:21;;;;;;;10.00;3.37;;;10.00;99.90;;;;;;5002313;28;20421;-92
2023/01/11 11:29:54;;;;;;;4.43;3.13;;;10.00;99.90;;;;;;4982273;28;20435;-91
2023/01/11 11:32:28;;;;;;;8.13;3.00;;;10.00;99.90;;;;;;4962826;28;20492;-90
2023/01/11 11:34:56;;;;;;;10.77;4.17;;;10.10;99.90;;;;;;4979065;28;20435;-91
2023/01/11 11:37:34;;;;;;;8.20;3.77;;;10.10;99.90;;;;;;4947055;28;20580;-91
2023/01/11 11:40:01;;;;;;;8.97;3.90;;;10.10;99.90;;;;;;4962826;28;20481;-91
2023/01/11 11:42:27;;;;;;;14.67;4.20;;;10.10;99.90;;;;;;4995212;28;20443;-92
2023/01/11 11:45:08;;;;;;;8.17;3.73;;;10.10;99.90;;;;;;4985147;28;20477;-92
2023/01/11 11:47:36;;;;;;;9.50;4.30;;;10.10;99.90;;;;;;5001488;28;20444;-91
2023/01/11 11:50:20;;;;;;;9.87;4.10;;;10.10;99.90;;;;;;4983976;28;20445;-93
2023/01/11 11:53:01;;;;;;;13.63;4.00;;;10.10;99.90;;;;;;4983366;28;20762;-92
2023/01/11 11:55:32;;;;;;;7.10;4.40;;;10.10;99.90;;;;;;4982109;28;20587;-95
2023/01/11 11:58:04;;;;;;;7.80;4.13;;;10.20;99.90;;;;;;4985283;28;20448;-94
2023/01/11 12:00:33;;;;;;;10.73;4.47;;;10.20;99.90;;;;;;4982064;28;20425;-94
2023/01/11 12:03:23;;;;;;;6.80;4.10;;;10.20;99.90;;;;;;4971109;28;20437;-96
2023/01/11 12:05:59;;;;;;;7.70;4.20;;;10.20;99.90;;;;;;4981050;28;20501;-96
2023/01/11 12:08:26;;;;;;;9.10;4.23;;;10.20;99.90;;;;;;4979810;28;20417;-93
2023/01/11 12:11:02;;;;;;;13.33;4.53;;;10.20;99.90;;;;;;4965540;28;20763;-93
2023/01/11 12:13:37;;;;;;;12.73;4.80;;;10.20;99.90;;;;;;4978187;28;20454;-92
2023/01/11 12:16:19;;;;;;;12.40;4.40;;;10.20;99.90;;;;;;4981857;28;20479;-94
2023/01/11 12:18:45;;;;;;;9.73;4.30;;;10.20;99.90;;;;;;4981107;28;20436;-93
2023/01/11 12:21:16;;;;;;;9.43;5.23;;;10.20;99.90;;;;;;4996605;28;20485;-94
2023/01/11 12:23:45;;;;;;;8.57;4.90;;;10.20;99.90;;;;;;5016243;28;20474;-94
2023/01/11 12:26:21;;;;;;;7.73;4.40;;;10.20;99.90;;;;;;4984868;28;20456;-95
2023/01/11 12:29:23;;;;;;;14.27;4.67;;;10.30;99.90;;;;;;4973827;28;20410;-93
2023/01/11 12:32:01;;;;;;;13.17;4.90;;;10.30;99.90;;;;;;5004038;28;20455;-92
2023/01/11 12:34:51;;;;;;;17.03;5.00;;;10.30;99.90;;;;;;4993973;28;20452;-94
2023/01/11 12:37:31;;;;;;;13.87;4.27;;;10.30;99.90;;;;;;4956741;28;20433;-94
2023/01/11 12:40:15;;;;;;;10.30;4.73;;;10.30;99.90;;;;;;4973952;28;20752;-93
2023/01/11 12:42:52;;;;;;;8.97;4.67;;;10.30;99.90;;;;;;4995783;28;20486;-95
2023/01/11 12:45:44;;;;;;;9.83;4.50;;;10.20;99.90;;;;;;5016683;28;20472;-93
2023/01/11 12:48:38;;;;;;;9.67;5.20;;;10.30;99.90;;;;;;4984225;28;20421;-93
2023/01/11 12:51:23;;;;;;;11.57;4.40;;;10.20;99.90;;;;;;5002723;28;20423;-92
2023/01/11 12:54:04;;;;;;;11.27;4.97;;;10.20;99.90;;;;;;4980576;28;20504;-91
2023/01/11 12:56:33;;;;;;;11.47;4.27;;;10.20;99.90;;;;;;4997776;28;20426;-94
2023/01/11 12:59:20;;;;;;;9.60;4.70;;;10.20;99.90;;;;;;4996077;28;20805;-94
2023/01/11 13:01:54;;;;;;;11.67;4.67;;;10.30;99.90;;;;;;4980495;28;20782;-93
2023/01/11 13:04:20;;;;;;;7.37;4.80;;;10.30;99.90;;;;;;4980770;28;20871;-92
2023/01/11 13:07:05;;;;;;;8.13;3.90;;;10.30;99.90;;;;;;4991307;28;20495;-91
2023/01/11 13:09:55;;;;;;;13.30;4.60;;;10.30;99.90;;;;;;4980407;28;20422;-92
2023/01/11 13:12:44;;;;;;;9.77;4.10;;;10.30;99.90;;;;;;4976990;28;20433;-93
2023/01/11 13:15:16;;;;;;;13.93;4.13;;;10.30;99.90;;;;;;4964111;28;20469;-93
2023/01/11 13:18:12;;;;;;;9.33;4.50;;;10.30;99.90;;;;;;4996662;28;20417;-93
2023/01/11 13:21:19;;;;;;;10.33;4.40;;;10.30;99.90;;;;;;4976212;28;20471;-94
2023/01/11 13:23:53;;;;;;;7.27;4.00;;;10.30;99.90;;;;;;4982260;28;20527;-94
2023/01/11 13:26:40;;;;;;;7.50;3.80;;;10.30;99.90;;;;;;4981183;28;20505;-93
2023/01/11 13:32:28;;;;;;;6.83;4.07;;;10.30;99.90;;;;;;4996204;28;20840;-90
2023/01/11 13:39:45;;;;;;;13.30;3.50;;;10.30;99.90;;;;;;5013846;28;20387;-92
2023/01/11 13:42:22;;;;;;;8.47;3.43;;;10.30;99.90;;;;;;4979892;28;20773;-91
2023/01/11 13:45:06;;;;;;;6.63;3.40;;;10.30;99.90;;;;;;4979834;28;20449;-91
2023/01/11 13:47:35;;;;;;;11.33;3.50;;;10.30;99.90;;;;;;4979887;28;20859;-91
2023/01/11 13:50:17;;;;;;;8.13;3.40;;;10.30;99.90;;;;;;4979660;28;20441;-91
2023/01/11 13:52:46;;;;;;;8.03;3.00;;;10.30;99.90;;;;;;4963796;28;20425;-94
2023/01/11 13:55:35;;;;;;;8.10;3.20;;;10.30;99.90;;;;;;4963702;28;20429;-94
2023/01/11 13:58:16;;;;;;;8.30;3.07;;;10.30;99.90;;;;;;4979616;28;20414;-91
2023/01/11 14:01:07;;;;;;;7.60;3.80;;;10.30;99.90;;;;;;4995782;28;20420;-91
2023/01/11 14:03:48;;;;;;;6.80;3.20;;;10.30;99.90;;;;;;4960239;28;20466;-92